createdAt,value
2019-03-04T00:01:54.582Z,14.93
2019-03-04T00:04:28.452Z,13.13
2019-03-04T00:07:02.289Z,14.80
2019-03-04T00:09:36.957Z,18.60
2019-03-04T00:12:10.902Z,22.93
2019-03-04T00:14:44.600Z,23.43
2019-03-04T00:17:18.496Z,17.00
2019-03-04T00:19:52.061Z,22.00
2019-03-04T00:22:25.841Z,22.43
2019-03-04T00:24:59.929Z,18.73
2019-03-04T00:27:33.888Z,17.53
2019-03-04T00:30:07.986Z,18.47
2019-03-04T00:32:41.971Z,14.13
2019-03-04T00:35:15.452Z,17.90
2019-03-04T00:37:49.929Z,10.43
2019-03-04T00:40:23.851Z,9.90
2019-03-04T00:42:57.695Z,10.00
2019-03-04T00:45:32.075Z,8.20
2019-03-04T00:48:05.922Z,7.93
2019-03-04T00:50:39.500Z,14.67
2019-03-04T00:53:13.418Z,12.10
2019-03-04T00:55:47.291Z,10.30
2019-03-04T00:58:21.052Z,11.87
2019-03-04T01:00:54.578Z,14.40
2019-03-04T01:03:28.257Z,24.60
2019-03-04T01:06:03.397Z,21.73
2019-03-04T01:08:40.250Z,13.80
2019-03-04T01:11:15.085Z,17.23
2019-03-04T01:13:48.916Z,18.40
2019-03-04T01:16:22.609Z,14.53
2019-03-04T01:18:56.465Z,12.37
2019-03-04T01:21:29.994Z,13.80
2019-03-04T01:24:03.920Z,10.67
2019-03-04T01:26:37.448Z,11.93
2019-03-04T01:29:11.300Z,14.60
2019-03-04T01:31:44.907Z,11.33
2019-03-04T01:34:18.386Z,9.37
2019-03-04T01:36:52.368Z,7.63
2019-03-04T01:39:26.267Z,12.87
2019-03-04T01:42:00.078Z,9.13
2019-03-04T01:44:33.782Z,11.03
2019-03-04T01:47:07.409Z,10.53
2019-03-04T01:49:41.751Z,9.53
2019-03-04T01:52:15.247Z,11.60
2019-03-04T01:54:49.048Z,13.50
2019-03-04T01:57:22.689Z,14.03
2019-03-04T01:59:56.598Z,10.90
2019-03-04T02:02:29.819Z,9.97
2019-03-04T02:05:03.832Z,12.90
2019-03-04T02:07:37.360Z,22.53
2019-03-04T02:10:13.301Z,14.83
2019-03-04T02:12:50.424Z,8.97
2019-03-04T02:15:24.341Z,9.17
2019-03-04T02:17:58.088Z,11.90
2019-03-04T02:20:31.907Z,9.20
2019-03-04T02:23:05.353Z,10.00
2019-03-04T02:26:21.240Z,8.73
2019-03-04T02:28:54.807Z,9.23
2019-03-04T02:31:28.760Z,7.03
2019-03-04T02:34:02.292Z,11.50
2019-03-04T02:36:36.130Z,9.83
2019-03-04T02:39:09.918Z,14.13
2019-03-04T02:41:44.237Z,11.17
2019-03-04T02:44:18.007Z,9.07
2019-03-04T02:46:51.964Z,10.03
2019-03-04T02:49:25.521Z,9.90
2019-03-04T02:51:59.450Z,5.17
2019-03-04T02:54:32.932Z,7.70
2019-03-04T02:57:07.440Z,12.93
2019-03-04T02:59:41.600Z,19.77
2019-03-04T03:02:15.465Z,18.27
2019-03-04T03:04:48.933Z,13.30
2019-03-04T03:07:22.974Z,9.50
2019-03-04T03:09:56.485Z,7.67
2019-03-04T03:12:30.327Z,17.87
2019-03-04T03:15:05.561Z,21.53
2019-03-04T03:17:39.537Z,25.47
2019-03-04T03:20:13.451Z,12.47
2019-03-04T03:22:47.593Z,11.37
2019-03-04T03:25:21.268Z,8.20
2019-03-04T03:27:55.091Z,5.77
2019-03-04T03:30:28.685Z,9.93
2019-03-04T03:33:02.660Z,8.63
2019-03-04T03:35:36.836Z,9.53
2019-03-04T03:38:10.688Z,8.63
2019-03-04T03:40:44.208Z,10.17
2019-03-04T03:43:18.085Z,6.07
2019-03-04T03:45:51.851Z,10.20
2019-03-04T03:48:25.802Z,6.63
2019-03-04T03:50:59.388Z,6.77
2019-03-04T03:53:33.319Z,5.67
2019-03-04T03:56:06.992Z,6.73
2019-03-04T03:58:40.982Z,9.80
2019-03-04T04:01:14.643Z,14.63
2019-03-04T04:03:48.747Z,14.17
2019-03-04T04:06:21.790Z,11.00
2019-03-04T04:08:56.153Z,36.97
2019-03-04T04:11:29.720Z,41.97
2019-03-04T04:14:03.619Z,21.73
2019-03-04T04:16:42.797Z,26.83
2019-03-04T04:19:16.730Z,15.30
2019-03-04T04:21:50.737Z,17.50
2019-03-04T04:24:24.687Z,20.17
2019-03-04T04:26:58.491Z,14.37
2019-03-04T04:29:32.462Z,13.20
2019-03-04T04:32:05.939Z,22.17
2019-03-04T04:34:39.715Z,20.67
2019-03-04T04:37:13.211Z,20.63
2019-03-04T04:39:47.149Z,30.17
2019-03-04T04:42:20.808Z,40.17
2019-03-04T04:44:55.653Z,20.53
2019-03-04T04:47:29.404Z,29.90
2019-03-04T04:50:03.333Z,24.33
2019-03-04T04:52:36.744Z,15.83
2019-03-04T04:55:10.646Z,12.57
2019-03-04T04:57:44.476Z,18.43
2019-03-04T05:00:18.688Z,18.83
2019-03-04T05:02:52.518Z,19.30
2019-03-04T05:05:26.408Z,14.13
2019-03-04T05:08:00.014Z,11.27
2019-03-04T05:10:35.041Z,19.97
2019-03-04T05:13:08.733Z,20.97
2019-03-04T05:15:42.679Z,15.93
2019-03-04T05:18:17.479Z,18.57
2019-03-04T05:20:51.421Z,16.50
2019-03-04T05:23:25.012Z,23.10
2019-03-04T05:25:59.237Z,15.53
2019-03-04T05:28:36.978Z,18.67
2019-03-04T05:31:11.454Z,21.80
2019-03-04T05:33:45.678Z,17.47
2019-03-04T05:36:20.853Z,19.53
2019-03-04T05:38:54.428Z,19.23
2019-03-04T05:41:28.501Z,15.07
2019-03-04T05:44:02.193Z,13.37
2019-03-04T05:46:36.980Z,23.87
2019-03-04T05:49:10.742Z,16.47
2019-03-04T05:51:45.295Z,31.37
2019-03-04T05:54:19.983Z,19.63
2019-03-04T05:56:53.835Z,20.43
2019-03-04T05:59:27.630Z,30.27
2019-03-04T06:02:06.615Z,37.23
2019-03-04T06:04:41.305Z,30.93
2019-03-04T06:07:26.023Z,40.00
2019-03-04T06:10:00.472Z,28.03
2019-03-04T06:12:34.777Z,22.83
2019-03-04T06:15:10.690Z,72.10
2019-03-04T06:17:44.858Z,38.37
2019-03-04T06:20:20.378Z,46.33
2019-03-04T06:22:54.428Z,37.13
2019-03-04T06:25:29.345Z,44.50
2019-03-04T06:28:05.715Z,51.93
2019-03-04T06:30:39.355Z,45.07
2019-03-04T06:33:13.641Z,58.20
2019-03-04T06:35:48.070Z,50.90
2019-03-04T06:38:22.261Z,45.87
2019-03-04T06:40:56.331Z,54.47
2019-03-04T06:43:31.658Z,51.20
2019-03-04T06:46:08.030Z,54.37
2019-03-04T06:48:43.839Z,64.17
2019-03-04T06:51:31.616Z,61.67
2019-03-04T06:54:09.773Z,66.00
2019-03-04T06:56:54.655Z,37.87
2019-03-04T06:59:38.405Z,56.70
2019-03-04T07:02:14.793Z,40.70
2019-03-04T07:05:19.151Z,40.63
2019-03-04T07:07:53.146Z,35.27
2019-03-04T07:10:27.957Z,37.93
2019-03-04T07:13:02.175Z,40.07
2019-03-04T07:15:36.601Z,56.33
2019-03-04T07:18:11.358Z,41.30
2019-03-04T07:20:46.595Z,47.50
2019-03-04T07:23:21.204Z,42.60
2019-03-04T07:25:56.628Z,37.23
2019-03-04T07:28:30.654Z,41.07
2019-03-04T07:31:07.487Z,50.30
2019-03-04T07:33:41.683Z,45.70
2019-03-04T07:36:17.072Z,30.50
2019-03-04T07:38:58.768Z,31.40
2019-03-04T07:41:38.269Z,38.33
2019-03-04T07:44:12.710Z,30.57
2019-03-04T07:46:47.290Z,27.27
2019-03-04T07:49:21.853Z,26.17
2019-03-04T07:51:56.806Z,32.07
2019-03-04T07:54:32.467Z,41.73
2019-03-04T07:57:07.407Z,53.50
2019-03-04T07:59:41.668Z,34.83
2019-03-04T08:02:16.366Z,37.33
2019-03-04T08:04:51.798Z,59.57
2019-03-04T08:07:54.859Z,38.20
2019-03-04T08:10:49.211Z,29.33
2019-03-04T08:13:30.739Z,33.90
2019-03-04T08:16:05.887Z,33.70
2019-03-04T08:18:41.278Z,16.80
2019-03-04T08:21:16.192Z,36.23
2019-03-04T08:23:50.534Z,22.17
2019-03-04T08:26:26.606Z,17.13
2019-03-04T08:29:01.680Z,14.97
2019-03-04T08:31:38.287Z,21.93
2019-03-04T08:34:12.898Z,20.17
2019-03-04T08:36:48.383Z,18.07
2019-03-04T08:39:26.159Z,7.87
2019-03-04T08:42:02.583Z,8.87
2019-03-04T08:44:37.633Z,16.10
2019-03-04T08:47:12.567Z,14.63
2019-03-04T08:49:49.045Z,16.43
2019-03-04T08:52:24.920Z,16.67
2019-03-04T08:54:59.021Z,13.17
2019-03-04T08:57:34.547Z,15.37
2019-03-04T09:00:11.193Z,27.17
2019-03-04T09:02:46.562Z,15.87
2019-03-04T09:05:24.892Z,20.47
2019-03-04T09:07:58.886Z,37.90
2019-03-04T09:10:34.472Z,14.40
2019-03-04T09:13:09.208Z,21.03
2019-03-04T09:15:44.686Z,14.23
2019-03-04T09:18:19.172Z,7.83
2019-03-04T09:20:55.299Z,15.67
2019-03-04T09:23:29.889Z,14.50
2019-03-04T09:26:08.558Z,6.63
2019-03-04T09:28:43.137Z,8.27
2019-03-04T09:31:17.643Z,14.37
2019-03-04T09:33:52.175Z,18.00
2019-03-04T09:36:26.695Z,17.53
2019-03-04T09:39:03.185Z,33.23
2019-03-04T09:41:38.712Z,15.73
2019-03-04T09:44:13.209Z,16.53
2019-03-04T09:46:47.040Z,8.93
2019-03-04T09:49:20.973Z,6.73
2019-03-04T09:51:56.315Z,16.93
2019-03-04T09:54:30.547Z,6.00
2019-03-04T09:57:04.791Z,7.23
2019-03-04T09:59:42.400Z,15.33
2019-03-04T10:02:20.307Z,7.20
2019-03-04T10:05:19.776Z,9.03
2019-03-04T10:08:32.353Z,9.93
2019-03-04T10:11:26.021Z,4.30
2019-03-04T10:14:21.519Z,8.00
2019-03-04T10:17:43.245Z,6.83
2019-03-04T10:20:53.433Z,10.77
2019-03-04T10:24:07.085Z,5.73
2019-03-04T10:27:18.705Z,8.77
2019-03-04T10:30:20.659Z,12.10
2019-03-04T10:33:09.944Z,7.53
2019-03-04T10:35:59.420Z,10.27
2019-03-04T10:39:22.416Z,20.73
2019-03-04T10:42:49.062Z,4.60
2019-03-04T10:45:52.334Z,10.97
2019-03-04T10:48:27.487Z,15.80
2019-03-04T10:51:02.646Z,6.80
2019-03-04T10:53:37.513Z,3.47
2019-03-04T10:56:14.599Z,5.70
2019-03-04T10:58:49.755Z,5.13
2019-03-04T11:01:30.377Z,6.27
2019-03-04T11:04:00.912Z,10.60
2019-03-04T11:06:35.882Z,18.37
2019-03-04T11:09:11.074Z,20.80
2019-03-04T11:11:45.790Z,7.83
2019-03-04T11:14:21.851Z,9.10
2019-03-04T11:16:56.703Z,5.03
2019-03-04T11:19:31.850Z,7.47
2019-03-04T11:22:06.612Z,8.40
2019-03-04T11:24:42.495Z,7.43
2019-03-04T11:27:17.108Z,5.30
2019-03-04T11:29:51.270Z,5.63
2019-03-04T11:32:25.844Z,8.00
2019-03-04T11:35:00.313Z,9.73
2019-03-04T11:37:35.383Z,5.30
2019-03-04T11:40:40.064Z,6.60
2019-03-04T11:43:16.943Z,8.87
2019-03-04T11:45:52.059Z,8.77
2019-03-04T11:48:27.218Z,6.23
2019-03-04T11:51:01.286Z,7.23
2019-03-04T11:53:37.965Z,7.83
2019-03-04T11:56:13.323Z,8.07
2019-03-04T11:58:47.596Z,10.83
2019-03-04T12:01:41.866Z,17.27
2019-03-04T12:04:31.408Z,6.83
2019-03-04T12:07:06.745Z,8.83
2019-03-04T12:09:41.207Z,7.37
2019-03-04T12:12:16.776Z,6.93
2019-03-04T12:14:50.796Z,6.33
2019-03-04T12:17:25.125Z,7.40
2019-03-04T12:19:59.619Z,8.50
2019-03-04T12:22:34.166Z,7.73
2019-03-04T12:25:11.144Z,8.47
2019-03-04T12:27:46.870Z,6.53
2019-03-04T12:30:23.220Z,7.37
2019-03-04T12:32:58.400Z,6.03
2019-03-04T12:35:33.412Z,15.10
2019-03-04T12:38:07.947Z,8.77
2019-03-04T12:40:49.874Z,8.93
2019-03-04T12:43:26.201Z,8.27
2019-03-04T12:46:00.795Z,6.07
2019-03-04T12:48:35.865Z,9.77
2019-03-04T12:51:11.301Z,8.37
2019-03-04T12:53:50.128Z,6.90
2019-03-04T12:56:26.561Z,6.73
2019-03-04T12:59:01.065Z,5.87
2019-03-04T13:01:35.767Z,6.30
2019-03-04T13:04:10.904Z,7.20
2019-03-04T13:06:45.139Z,7.07
2019-03-04T13:09:19.960Z,4.67
2019-03-04T13:11:55.100Z,11.50
2019-03-04T13:14:33.382Z,4.77
2019-03-04T13:17:08.311Z,9.93
2019-03-04T13:19:42.308Z,6.60
2019-03-04T13:22:20.576Z,6.57
2019-03-04T13:24:54.918Z,8.23
2019-03-04T13:27:29.564Z,10.23
2019-03-04T13:30:03.579Z,7.40
2019-03-04T13:32:39.426Z,4.83
2019-03-04T13:35:23.942Z,6.50
2019-03-04T13:37:54.496Z,8.43
2019-03-04T13:40:28.636Z,7.10
2019-03-04T13:43:03.263Z,5.30
2019-03-04T13:45:37.781Z,7.43
2019-03-04T13:48:13.123Z,6.90
2019-03-04T13:50:48.229Z,6.50
2019-03-04T13:53:23.978Z,6.50
2019-03-04T13:55:58.667Z,7.30
2019-03-04T13:58:37.629Z,8.97
2019-03-04T14:01:13.441Z,6.57
2019-03-04T14:03:47.884Z,8.03
2019-03-04T14:06:23.198Z,7.47
2019-03-04T14:08:58.447Z,5.93
2019-03-04T14:11:32.671Z,5.23
2019-03-04T14:14:13.318Z,13.77
2019-03-04T14:16:47.943Z,4.60
2019-03-04T14:19:22.001Z,8.23
2019-03-04T14:21:57.574Z,5.70
2019-03-04T14:24:35.676Z,5.30
2019-03-04T14:27:10.562Z,7.47
2019-03-04T14:29:45.276Z,6.20
2019-03-04T14:32:24.025Z,7.20
2019-03-04T14:35:01.026Z,8.83
2019-03-04T14:37:38.703Z,5.20
2019-03-04T14:40:14.675Z,5.50
2019-03-04T14:42:49.441Z,12.53
2019-03-04T14:45:27.771Z,6.63
2019-03-04T14:48:01.757Z,12.10
2019-03-04T14:50:39.416Z,6.67
2019-03-04T14:53:14.011Z,7.87
2019-03-04T14:55:48.910Z,5.40
2019-03-04T14:58:25.389Z,6.07
2019-03-04T15:01:04.852Z,3.90
2019-03-04T15:03:40.711Z,13.20
2019-03-04T15:06:16.353Z,9.63
2019-03-04T15:09:13.265Z,7.13
2019-03-04T15:11:47.678Z,8.00
2019-03-04T15:14:22.765Z,5.70
2019-03-04T15:17:03.257Z,6.80
2019-03-04T15:19:36.767Z,9.00
2019-03-04T15:22:10.926Z,15.73
2019-03-04T15:24:45.434Z,6.33
2019-03-04T15:27:20.155Z,8.57
2019-03-04T15:29:54.877Z,8.93
2019-03-04T15:32:30.249Z,9.90
2019-03-04T15:35:04.589Z,10.23
2019-03-04T15:37:40.082Z,19.83
2019-03-04T15:40:14.733Z,9.70
2019-03-04T15:42:50.962Z,8.70
2019-03-04T15:45:24.307Z,12.47
2019-03-04T15:48:00.403Z,6.37
2019-03-04T15:50:34.822Z,10.93
2019-03-04T15:53:09.117Z,23.57
2019-03-04T15:55:43.574Z,8.53
2019-03-04T15:58:18.655Z,11.37
2019-03-04T16:00:53.398Z,13.50
2019-03-04T16:03:29.423Z,7.10
2019-03-04T16:06:04.296Z,6.60
2019-03-04T16:08:39.220Z,7.47
2019-03-04T16:11:13.837Z,9.90
2019-03-04T16:13:52.987Z,9.27
2019-03-04T16:16:25.628Z,21.27
2019-03-04T16:19:00.090Z,11.17
2019-03-04T16:21:34.139Z,12.13
2019-03-04T16:24:11.816Z,16.70
2019-03-04T16:26:47.211Z,11.30
2019-03-04T16:29:21.869Z,22.43
2019-03-04T16:31:57.097Z,17.47
2019-03-04T16:34:32.550Z,22.73
2019-03-04T16:37:10.808Z,15.17
2019-03-04T16:39:45.248Z,14.40
2019-03-04T16:42:30.231Z,27.43
2019-03-04T16:45:07.042Z,14.23
2019-03-04T16:47:45.797Z,27.17
2019-03-04T16:50:19.983Z,15.40
2019-03-04T16:52:55.528Z,14.00
2019-03-04T16:55:30.823Z,15.57
2019-03-04T16:58:05.762Z,15.10
2019-03-04T17:00:39.327Z,12.87
2019-03-04T17:03:16.803Z,15.60
2019-03-04T17:05:52.041Z,21.83
2019-03-04T17:08:27.421Z,44.47
2019-03-04T17:11:01.988Z,24.57
2019-03-04T17:13:36.425Z,24.63
2019-03-04T17:16:11.702Z,31.57
2019-03-04T17:18:45.636Z,54.00
2019-03-04T17:21:20.631Z,38.63
2019-03-04T17:23:54.974Z,31.97
2019-03-04T17:26:29.143Z,31.23
2019-03-04T17:29:03.827Z,24.33
2019-03-04T17:31:43.294Z,43.90
2019-03-04T17:34:22.190Z,22.43
2019-03-04T17:36:57.177Z,29.63
2019-03-04T17:39:31.305Z,31.03
2019-03-04T17:42:06.627Z,29.90
2019-03-04T17:44:43.518Z,33.10
2019-03-04T17:47:19.352Z,35.00
2019-03-04T17:49:56.122Z,39.23
2019-03-04T17:52:31.093Z,55.50
2019-03-04T17:55:05.502Z,46.37
2019-03-04T17:57:41.397Z,54.57
2019-03-04T18:00:17.493Z,65.60
2019-03-04T18:02:51.156Z,61.33
2019-03-04T18:05:26.725Z,50.00
2019-03-04T18:08:01.248Z,47.73
2019-03-04T18:10:37.600Z,67.33
2019-03-04T18:13:13.796Z,50.93
2019-03-04T18:15:48.513Z,34.57
2019-03-04T18:18:23.959Z,50.63
2019-03-04T18:20:58.559Z,45.27
2019-03-04T18:23:33.445Z,47.77
2019-03-04T18:26:22.245Z,44.40
2019-03-04T18:29:24.562Z,62.60
2019-03-04T18:33:02.703Z,64.57
2019-03-04T18:36:32.759Z,61.03
2019-03-04T18:39:52.190Z,73.60
2019-03-04T18:42:52.392Z,73.77
2019-03-04T18:46:00.014Z,69.57
2019-03-04T18:48:59.903Z,70.60
2019-03-04T18:51:35.263Z,75.10
2019-03-04T18:54:17.598Z,71.63
2019-03-04T18:56:52.354Z,93.03
2019-03-04T18:59:27.197Z,72.63
2019-03-04T19:02:02.698Z,66.03
2019-03-04T19:04:38.000Z,69.37
2019-03-04T19:07:14.803Z,66.23
2019-03-04T19:09:49.956Z,68.90
2019-03-04T19:12:24.624Z,62.60
2019-03-04T19:14:59.700Z,66.23
2019-03-04T19:17:35.867Z,56.57
2019-03-04T19:20:13.639Z,62.70
2019-03-04T19:22:50.016Z,59.37
2019-03-04T19:25:30.350Z,57.70
2019-03-04T19:28:14.033Z,60.83
2019-03-04T19:30:49.672Z,52.93
2019-03-04T19:33:24.586Z,48.80
2019-03-04T19:36:00.776Z,41.27
2019-03-04T19:38:35.731Z,41.77
2019-03-04T19:41:10.699Z,44.67
2019-03-04T19:43:48.499Z,51.53
2019-03-04T19:46:23.478Z,39.63
2019-03-04T19:48:58.365Z,48.63
2019-03-04T19:51:33.117Z,48.63
2019-03-04T19:54:07.953Z,49.60
2019-03-04T19:56:42.706Z,45.30
2019-03-04T19:59:17.527Z,46.70
2019-03-04T20:01:52.662Z,44.17
2019-03-04T20:04:26.939Z,35.37
2019-03-04T20:07:02.615Z,42.30
2019-03-04T20:09:37.118Z,27.23
2019-03-04T20:12:13.212Z,39.50
2019-03-04T20:14:47.363Z,52.67
2019-03-04T20:17:23.323Z,47.77
2019-03-04T20:20:06.289Z,33.10
2019-03-04T20:22:43.414Z,40.57
2019-03-04T20:25:17.707Z,33.63
2019-03-04T20:27:52.302Z,37.20
2019-03-04T20:30:26.517Z,54.53
2019-03-04T20:33:00.653Z,44.30
2019-03-04T20:35:34.727Z,59.57
2019-03-04T20:38:12.276Z,46.73
2019-03-04T20:40:46.286Z,39.03
2019-03-04T20:43:24.447Z,47.60
2019-03-04T20:45:58.537Z,45.67
2019-03-04T20:48:32.986Z,45.87
2019-03-04T20:51:12.849Z,50.40
2019-03-04T20:53:47.639Z,38.40
2019-03-04T20:56:21.863Z,49.63
2019-03-04T20:58:57.920Z,36.17
2019-03-04T21:01:31.493Z,42.37
2019-03-04T21:04:06.089Z,37.70
2019-03-04T21:06:39.891Z,45.33
2019-03-04T21:09:16.175Z,34.80
2019-03-04T21:11:50.435Z,54.63
2019-03-04T21:14:25.282Z,36.33
2019-03-04T21:17:00.470Z,36.77
2019-03-04T21:19:34.535Z,34.70
2019-03-04T21:22:09.061Z,29.67
2019-03-04T21:24:43.862Z,33.87
2019-03-04T21:27:23.543Z,42.63
2019-03-04T21:30:36.847Z,36.37
2019-03-04T21:33:32.077Z,32.40
2019-03-04T21:36:34.187Z,33.33
2019-03-04T21:39:11.621Z,44.40
2019-03-04T21:42:19.293Z,50.07
2019-03-04T21:45:40.756Z,49.00
2019-03-04T21:48:25.002Z,33.07
2019-03-04T21:51:05.277Z,37.00
2019-03-04T21:53:43.702Z,26.03
2019-03-04T21:56:42.310Z,31.27
2019-03-04T21:59:17.291Z,28.70
2019-03-04T22:01:55.994Z,29.70
2019-03-04T22:04:30.368Z,32.17
2019-03-04T22:07:06.035Z,32.87
2019-03-04T22:09:40.069Z,31.07
2019-03-04T22:12:15.739Z,34.57
2019-03-04T22:14:50.388Z,27.10
2019-03-04T22:17:24.204Z,31.33
2019-03-04T22:19:58.637Z,20.87
2019-03-04T22:22:33.188Z,27.13
2019-03-04T22:25:08.141Z,45.87
2019-03-04T22:27:42.174Z,24.40
2019-03-04T22:30:18.156Z,33.33
2019-03-04T22:32:58.551Z,26.37
2019-03-04T22:35:32.811Z,24.60
2019-03-04T22:38:06.711Z,16.10
2019-03-04T22:40:43.375Z,22.37
2019-03-04T22:43:17.084Z,24.60
2019-03-04T22:45:51.746Z,31.20
2019-03-04T22:48:26.629Z,27.53
2019-03-04T22:51:00.743Z,17.57
2019-03-04T22:53:34.569Z,27.70
2019-03-04T22:56:10.219Z,21.83
2019-03-04T22:58:43.602Z,28.50
2019-03-04T23:02:02.770Z,22.13
2019-03-04T23:04:54.279Z,15.97
2019-03-04T23:07:34.166Z,17.27
2019-03-04T23:10:49.545Z,51.97
2019-03-04T23:13:56.312Z,38.93
2019-03-04T23:16:32.130Z,24.60
2019-03-04T23:19:07.439Z,20.33
2019-03-04T23:21:41.161Z,32.10
2019-03-04T23:24:15.307Z,28.37
2019-03-04T23:26:48.967Z,17.13
2019-03-04T23:29:24.548Z,20.00
2019-03-04T23:31:58.501Z,23.57
2019-03-04T23:34:34.237Z,13.90
2019-03-04T23:37:09.393Z,20.77
2019-03-04T23:39:44.087Z,19.27
2019-03-04T23:42:21.598Z,26.13
2019-03-04T23:44:56.236Z,21.30
2019-03-04T23:47:30.108Z,14.83
2019-03-04T23:50:22.512Z,20.63
2019-03-04T23:52:57.227Z,20.07
2019-03-04T23:55:31.247Z,19.83
2019-03-04T23:58:05.230Z,10.53
